Airfield :
LOGIN :

Register | Disclaimer

   EN    FR    IT 

 










Legend :    VFR   Marginal VFR   IFR   Intensive IFR   Very Intensive IFR
Visi :
Ceiling :
>= 8 km
>= 3000ft
5 to 8 km
1000 to 3000 ft
1500m to 5 km
500 to 1000 ft
800 to 1500m
200 to 500 ft
< 800m
< 200 ft
Symbols :   Thunderstorms  Fog  Heavy snow  Heavy precipitations  Wind > 20 kt
SIGMETs :     Misc.  Thunderstorms  Icing  Turbulence  Mountain Waves  Volcanic Ashes






- Airport Elevation : 79 ft
- IATA code : SPU


LDSP - Split

CURRENT METAR :
  • 142330Z AUTO 07008KT 040V100 9999 BKN040/// BKN047/// OVC058/// 15/11 Q1010

EXPIRED METARs :
  • 142300Z AUTO 08008KT 9999 FEW037/// BKN061/// 15/11 Q1010
  • 142230Z AUTO 07007KT 9999 BKN034/// BKN048/// 15/11 Q1010
  • 142200Z AUTO 04004KT 9999 BKN034/// BKN040/// OVC046/// 13/10 Q1010
  • 142130Z AUTO 02004KT 360V060 9999 BKN076/// 13/10 Q1010
  • 142100Z 36005KT 9999 SCT075 13/10 Q1010 NOSIG

TAF TAF LDSP
Valid from the 15 at 00:00 until the 16 at 00:00 UTC


142325Z 1500/1600 10010KT 9999 FEW030 BKN060 TX17/1518Z TN14/1503Z
BECMG 1508/1510 10020KT
PROB40
TEMPO 1510/1600 11020G30KT



MET'MAP, your aeronautical weather chart ! - Copyright ORBIFLY December 2007 - Disclaimer

ORBIFLY MET'MAP TEAM :

Programming & Development : Alexandra Zaïnal
Concept & Development : Baudouin d'Aumeries
Co-Development & Prog : Marc-Olivier Méhu
Technical & hardware support : Manuel Goepfert

Contact : metmap@orbifly.com




SOURCES & CREDITS :

   NOAA